Time;durP1;ratioP1;P1;durP2;ratioP2;P2;SDS_P1;SDS_P2;PMS_P1;PMS_P2;Temp;Humidity;BMP_temperature;BMP_pressure;BME280_temperature;BME280_humidity;BME280_pressure;Samples;Min_cycle;Max_cycle;Signal;HPM_P1;HPM_P2
2023/11/26 00:00:51;;;;;;;26.15;8.85;;;4.30;99.90;;;;;;6291292;22;20013;-86
2023/11/26 00:03:17;;;;;;;20.20;9.80;;;4.30;99.90;;;;;;6293342;22;20005;-86
2023/11/26 00:05:43;;;;;;;33.80;10.10;;;4.30;99.90;;;;;;6294120;22;20012;-86
2023/11/26 00:08:09;;;;;;;28.08;10.25;;;4.20;99.90;;;;;;6294372;22;20381;-86
2023/11/26 00:10:35;;;;;;;26.85;9.77;;;4.30;99.90;;;;;;6290891;22;20016;-87
2023/11/26 00:13:00;;;;;;;31.48;10.00;;;4.20;99.90;;;;;;6291858;22;20009;-85
2023/11/26 00:15:26;;;;;;;26.48;9.82;;;4.20;99.90;;;;;;6292795;22;20108;-86
2023/11/26 00:17:52;;;;;;;30.42;9.98;;;4.20;99.90;;;;;;6293216;22;20025;-85
2023/11/26 00:20:17;;;;;;;24.02;10.35;;;4.20;99.90;;;;;;6290952;22;20015;-85
2023/11/26 00:22:43;;;;;;;28.27;10.13;;;4.20;99.90;;;;;;6292006;22;20316;-85
2023/11/26 00:25:09;;;;;;;33.75;10.20;;;4.20;99.90;;;;;;6293270;22;20015;-85
2023/11/26 00:27:35;;;;;;;26.80;10.15;;;4.20;99.90;;;;;;6291683;22;20370;-86
2023/11/26 00:30:01;;;;;;;25.60;9.63;;;4.20;99.90;;;;;;6292675;22;20364;-85
2023/11/26 00:32:27;;;;;;;26.70;9.63;;;4.20;99.90;;;;;;6293236;22;20065;-85
2023/11/26 00:34:53;;;;;;;28.23;9.23;;;4.30;99.90;;;;;;6291979;22;20005;-85
2023/11/26 00:37:18;;;;;;;26.98;11.80;;;4.30;99.90;;;;;;6291428;22;20028;-85
2023/11/26 00:39:47;;;;;;;33.53;11.23;;;4.20;99.90;;;;;;6290231;22;20013;-86
2023/11/26 00:42:13;;;;;;;29.45;9.65;;;4.20;99.90;;;;;;6291095;22;20005;-84
2023/11/26 00:44:39;;;;;;;28.00;10.68;;;4.20;99.90;;;;;;6291902;22;20012;-85
2023/11/26 00:47:05;;;;;;;37.78;11.23;;;4.20;99.90;;;;;;6187647;22;20521;-85
2023/11/26 00:49:31;;;;;;;28.08;10.57;;;4.20;99.90;;;;;;6292033;22;19997;-84
2023/11/26 00:51:57;;;;;;;28.08;11.02;;;4.20;99.90;;;;;;6292123;22;20092;-86
2023/11/26 00:54:23;;;;;;;28.10;11.35;;;4.20;99.90;;;;;;6293383;22;20012;-85
2023/11/26 00:56:49;;;;;;;36.17;12.35;;;4.20;99.90;;;;;;6291750;22;20009;-85
2023/11/26 00:59:14;;;;;;;20.40;9.27;;;4.20;99.90;;;;;;6291745;22;20050;-87
2023/11/26 01:01:40;;;;;;;28.67;9.00;;;4.20;99.90;;;;;;6289770;22;20007;-85
2023/11/26 01:04:06;;;;;;;22.83;8.40;;;4.20;99.90;;;;;;6290708;22;20019;-85
2023/11/26 08:59:24;;;;;;;37.58;15.85;;;5.10;99.90;;;;;;6198311;22;20028;-86
2023/11/26 10:36:48;;;;;;;;;;;;;;;;;;;;;
2023/11/26 10:47:13;;;;;;;;;;;;;;;;;;;;;
2023/11/26 10:54:18;;;;;;;36.17;13.73;;;6.20;99.90;;;;;;6193250;23;20024;-87
2023/11/26 10:57:59;;;;;;;29.25;11.73;;;6.20;99.90;;;;;;6193115;23;20083;-86
2023/11/26 13:11:53;;;;;;;10.98;5.20;;;7.10;99.90;;;;;;6193176;22;20108;-87
2023/11/26 14:54:39;;;;;;;;;;;;;;;;;;;;;
2023/11/26 15:01:24;;;;;;;;;;;;;;;;;;;;;
2023/11/26 15:26:05;;;;;;;;;;;;;;;;;;;;;
2023/11/26 15:40:09;;;;;;;;;;;;;;;;;;;;;
2023/11/26 15:43:20;;;;;;;17.88;9.05;;;5.80;99.90;;;;;;5986665;23;20068;-87
2023/11/26 15:45:29;;;;;;;18.33;9.98;;;5.80;99.90;;;;;;5984825;23;20043;-87
2023/11/26 15:47:55;;;;;;;21.55;9.95;;;5.80;99.90;;;;;;6011193;23;20004;-87
2023/11/26 15:51:09;;;;;;;30.67;12.98;;;5.80;99.90;;;;;;6064653;23;20102;-88
2023/11/26 15:53:54;;;;;;;45.63;15.60;;;5.70;99.90;;;;;;6051693;23;20015;-87
2023/11/26 15:57:25;;;;;;;;;;;;;;;;;;;;;
2023/11/26 16:17:50;;;;;;;15.60;7.47;;;5.60;99.90;;;;;;6235490;22;20024;-61
2023/11/26 16:20:16;;;;;;;18.25;9.02;;;5.60;99.90;;;;;;6217205;22;20028;-60
2023/11/26 16:22:42;;;;;;;20.70;7.32;;;5.60;99.90;;;;;;6322069;22;20499;-60
2023/11/26 16:25:09;;;;;;;16.15;7.32;;;5.60;99.90;;;;;;6269131;22;20072;-59
2023/11/26 16:27:35;;;;;;;10.05;5.72;;;5.60;99.90;;;;;;6250318;22;20002;-60
2023/11/26 16:30:02;;;;;;;7.40;4.93;;;5.60;99.90;;;;;;6208205;23;20597;-59
2023/11/26 16:32:28;;;;;;;13.60;5.40;;;5.60;99.90;;;;;;6184212;22;20024;-59
2023/11/26 16:34:54;;;;;;;11.15;5.22;;;5.50;99.90;;;;;;6207870;23;20023;-59
2023/11/26 16:37:19;;;;;;;12.77;5.70;;;5.50;99.90;;;;;;6207930;23;20005;-60
2023/11/26 16:39:45;;;;;;;20.17;6.18;;;5.50;99.90;;;;;;6207680;22;20004;-58
2023/11/26 16:42:11;;;;;;;10.18;4.95;;;5.50;99.90;;;;;;6207482;23;20395;-59
2023/11/26 16:44:39;;;;;;;9.10;5.50;;;5.50;99.90;;;;;;6208231;23;20001;-59
2023/11/26 16:47:05;;;;;;;16.67;5.90;;;5.50;99.90;;;;;;6198528;22;20374;-60
2023/11/26 16:49:30;;;;;;;13.88;5.72;;;5.50;99.90;;;;;;6265905;22;20024;-59
2023/11/26 16:51:56;;;;;;;14.75;6.93;;;5.50;99.90;;;;;;6207434;23;20024;-59
2023/11/26 16:54:22;;;;;;;13.35;6.68;;;5.50;99.90;;;;;;6208353;23;20100;-60
2023/11/26 16:56:48;;;;;;;14.07;6.28;;;5.50;99.90;;;;;;6206595;23;20012;-60
2023/11/26 16:59:13;;;;;;;13.77;5.40;;;5.50;99.90;;;;;;6207336;23;20059;-60
2023/11/26 17:01:39;;;;;;;12.50;6.82;;;5.50;99.90;;;;;;6206647;23;20043;-60
2023/11/26 17:04:05;;;;;;;18.90;8.65;;;5.50;99.90;;;;;;6207217;23;20076;-59
2023/11/26 17:06:31;;;;;;;14.70;7.20;;;5.50;99.90;;;;;;6205584;23;20003;-60
2023/11/26 17:08:57;;;;;;;25.67;8.95;;;5.50;99.90;;;;;;6208010;23;20004;-58
2023/11/26 17:11:24;;;;;;;25.10;12.27;;;5.50;99.90;;;;;;6206443;23;20066;-60
2023/11/26 17:13:50;;;;;;;17.50;9.38;;;5.50;99.90;;;;;;6193388;22;20042;-59
2023/11/26 17:16:15;;;;;;;22.65;10.23;;;5.50;99.90;;;;;;6285991;22;20016;-59
2023/11/26 17:18:42;;;;;;;21.00;10.88;;;5.50;99.90;;;;;;6204044;22;20027;-61
2023/11/26 17:21:08;;;;;;;22.77;8.63;;;5.50;99.90;;;;;;6206384;23;20000;-60
2023/11/26 17:23:34;;;;;;;24.80;10.30;;;5.50;99.90;;;;;;6206470;23;20062;-51
2023/11/26 17:26:00;;;;;;;23.88;9.07;;;5.50;99.90;;;;;;6207196;22;20008;-56
2023/11/26 17:28:25;;;;;;;18.17;9.30;;;5.50;99.90;;;;;;6207153;23;20038;-53
2023/11/26 17:30:51;;;;;;;27.00;11.13;;;5.50;99.90;;;;;;6208185;23;20000;-54
2023/11/26 17:33:17;;;;;;;21.52;9.57;;;5.50;99.90;;;;;;6186221;22;20065;-50
2023/11/26 17:35:43;;;;;;;24.58;10.45;;;5.50;99.90;;;;;;6208416;23;20439;-51
2023/11/26 17:38:08;;;;;;;16.10;8.30;;;5.50;99.90;;;;;;6207722;22;20114;-50
2023/11/26 17:40:37;;;;;;;23.73;11.00;;;5.50;99.90;;;;;;6207849;23;20088;-54
2023/11/26 17:43:04;;;;;;;24.95;8.27;;;5.50;99.90;;;;;;6206512;23;20000;-52
2023/11/26 17:45:30;;;;;;;24.75;9.52;;;5.50;99.90;;;;;;6208352;23;20079;-52
2023/11/26 17:47:56;;;;;;;28.23;9.07;;;5.40;99.90;;;;;;6207116;23;20039;-54
2023/11/26 17:50:21;;;;;;;19.05;9.07;;;5.40;99.90;;;;;;6208188;23;20366;-50
2023/11/26 17:52:47;;;;;;;24.05;9.68;;;5.40;99.90;;;;;;6206949;23;20005;-50
2023/11/26 17:55:13;;;;;;;28.48;9.70;;;5.40;99.90;;;;;;6207575;23;20044;-55
2023/11/26 17:57:38;;;;;;;18.58;8.52;;;5.40;99.90;;;;;;6311089;22;20341;-52
2023/11/26 18:00:06;;;;;;;32.10;9.15;;;5.30;99.90;;;;;;6232651;22;20029;-59
2023/11/26 18:02:32;;;;;;;28.80;9.05;;;5.30;99.90;;;;;;6244263;22;20084;-55
2023/11/26 18:04:58;;;;;;;18.42;8.10;;;5.40;99.90;;;;;;6207746;23;20465;-54
2023/11/26 18:07:24;;;;;;;27.40;10.95;;;5.30;99.90;;;;;;6206682;23;19997;-51
2023/11/26 18:09:49;;;;;;;37.10;14.68;;;5.30;99.90;;;;;;6207051;22;20065;-54
2023/11/26 18:12:15;;;;;;;34.22;12.40;;;5.30;99.90;;;;;;6206311;22;20028;-58
2023/11/26 18:14:42;;;;;;;28.90;13.02;;;5.30;99.90;;;;;;6206232;22;20007;-57
2023/11/26 18:17:09;;;;;;;32.60;11.73;;;5.30;99.90;;;;;;6207342;23;20015;-57
2023/11/26 18:19:35;;;;;;;30.33;10.60;;;5.30;99.90;;;;;;6207466;22;20342;-56
2023/11/26 18:22:01;;;;;;;32.60;12.52;;;5.20;99.90;;;;;;6207334;23;20011;-56
2023/11/26 18:24:26;;;;;;;31.73;11.82;;;5.20;99.90;;;;;;6206573;23;20012;-56
2023/11/26 18:26:52;;;;;;;38.17;15.35;;;5.20;99.90;;;;;;6207357;22;20006;-56
2023/11/26 18:29:17;;;;;;;37.47;14.10;;;5.20;99.90;;;;;;6206864;22;20032;-58
2023/11/26 18:31:43;;;;;;;48.53;19.15;;;5.20;99.90;;;;;;6207486;22;20320;-59
2023/11/26 18:34:09;;;;;;;50.70;20.45;;;5.10;99.90;;;;;;6224798;22;20583;-59
2023/11/26 18:36:35;;;;;;;42.38;16.88;;;5.10;99.90;;;;;;6207576;22;20008;-57
2023/11/26 18:39:01;;;;;;;41.15;13.80;;;5.10;99.90;;;;;;6206963;22;20004;-61
2023/11/26 18:41:27;;;;;;;24.55;10.35;;;5.10;99.90;;;;;;6207992;22;20005;-57
2023/11/26 18:43:55;;;;;;;22.80;9.93;;;5.10;99.90;;;;;;6206550;23;20005;-59
2023/11/26 18:46:21;;;;;;;25.15;10.85;;;5.00;99.90;;;;;;6207286;23;20331;-60
2023/11/26 18:48:47;;;;;;;26.52;11.30;;;5.10;99.90;;;;;;6206433;23;20025;-57
2023/11/26 18:51:12;;;;;;;25.98;10.50;;;5.10;99.90;;;;;;6207114;22;20087;-55
2023/11/26 18:53:38;;;;;;;29.77;13.32;;;5.00;99.90;;;;;;6207138;22;20383;-58
2023/11/26 18:56:04;;;;;;;33.25;11.93;;;5.00;99.90;;;;;;6206272;23;20490;-57
2023/11/26 18:58:30;;;;;;;19.90;10.32;;;5.00;99.90;;;;;;6205613;23;20373;-58
2023/11/26 19:00:56;;;;;;;28.00;10.85;;;5.00;99.90;;;;;;6206574;22;20075;-60
2023/11/26 19:03:21;;;;;;;25.95;10.98;;;5.00;99.90;;;;;;6207184;22;20031;-59
2023/11/26 19:05:47;;;;;;;29.55;12.07;;;5.00;99.90;;;;;;6207671;22;20076;-58
2023/11/26 19:08:12;;;;;;;31.83;13.43;;;5.00;99.90;;;;;;6207575;22;20338;-52
2023/11/26 19:10:42;;;;;;;25.73;13.43;;;5.00;99.90;;;;;;6208620;22;20008;-61
2023/11/26 19:13:08;;;;;;;42.45;15.85;;;5.00;99.90;;;;;;6209090;22;20042;-62
2023/11/26 19:15:34;;;;;;;26.63;11.73;;;5.00;99.90;;;;;;6207960;23;20001;-62
2023/11/26 19:18:00;;;;;;;40.85;14.02;;;5.00;99.90;;;;;;6208157;22;20326;-62
2023/11/26 19:20:25;;;;;;;27.35;10.63;;;5.00;99.90;;;;;;6207637;22;20012;-57
2023/11/26 19:22:52;;;;;;;33.53;11.80;;;5.00;99.90;;;;;;6208909;22;20024;-59
2023/11/26 19:25:18;;;;;;;21.95;9.60;;;4.90;99.90;;;;;;6208816;23;20005;-61
2023/11/26 19:27:43;;;;;;;23.55;8.95;;;4.90;99.90;;;;;;6208142;23;20003;-59
2023/11/26 19:30:09;;;;;;;23.08;9.68;;;4.90;99.90;;;;;;6208089;22;20015;-59
2023/11/26 19:32:35;;;;;;;19.42;8.48;;;4.90;99.90;;;;;;6207128;23;20004;-57
2023/11/26 19:35:03;;;;;;;31.33;10.25;;;4.90;99.90;;;;;;6296067;22;20109;-55
2023/11/26 19:37:28;;;;;;;16.70;8.15;;;4.90;99.90;;;;;;6207338;23;20008;-58
2023/11/26 19:39:54;;;;;;;27.05;9.07;;;5.00;99.90;;;;;;6208058;23;20015;-55
2023/11/26 19:42:20;;;;;;;24.80;7.93;;;4.90;99.90;;;;;;6207499;23;20062;-57
2023/11/26 19:44:45;;;;;;;16.55;8.48;;;4.90;99.90;;;;;;6207569;23;20479;-56
2023/11/26 19:47:11;;;;;;;24.00;8.15;;;4.90;99.90;;;;;;6208200;23;20367;-56
2023/11/26 19:49:36;;;;;;;26.08;8.18;;;4.90;99.90;;;;;;6207775;23;20004;-56
2023/11/26 19:52:02;;;;;;;18.40;7.45;;;4.90;99.90;;;;;;6207175;23;20447;-54
2023/11/26 19:54:28;;;;;;;23.15;7.55;;;4.90;99.90;;;;;;6207970;22;20008;-56
2023/11/26 19:56:53;;;;;;;19.70;6.68;;;4.90;99.90;;;;;;6206688;23;20031;-57
2023/11/26 19:59:19;;;;;;;37.65;11.95;;;4.90;99.90;;;;;;6205767;23;20059;-54
2023/11/26 20:01:46;;;;;;;24.92;7.38;;;4.80;99.90;;;;;;6208708;22;20005;-56
2023/11/26 20:04:12;;;;;;;29.73;8.98;;;4.80;99.90;;;;;;6207103;23;20004;-55
2023/11/26 20:06:38;;;;;;;33.50;9.02;;;4.80;99.90;;;;;;6208270;23;20473;-56
2023/11/26 20:09:05;;;;;;;17.08;4.65;;;4.80;99.90;;;;;;6208116;23;20001;-53
2023/11/26 20:11:31;;;;;;;11.32;5.03;;;4.80;99.90;;;;;;6207586;23;20024;-56
2023/11/26 20:13:57;;;;;;;15.45;4.85;;;4.80;99.90;;;;;;6206001;23;20084;-55
2023/11/26 20:16:24;;;;;;;31.38;5.03;;;4.80;99.90;;;;;;6206843;22;20081;-56
2023/11/26 20:18:53;;;;;;;19.35;6.05;;;4.70;99.90;;;;;;6207475;23;20009;-57
2023/11/26 20:21:19;;;;;;;21.35;5.63;;;4.70;99.90;;;;;;6207254;23;20015;-56
2023/11/26 20:23:44;;;;;;;23.10;5.70;;;4.70;99.90;;;;;;6207964;23;20004;-55
2023/11/26 20:26:15;;;;;;;18.05;5.68;;;4.70;99.90;;;;;;6208309;23;20008;-53
2023/11/26 20:28:41;;;;;;;15.88;5.95;;;4.70;99.90;;;;;;6207130;23;20437;-55
2023/11/26 20:31:10;;;;;;;16.83;5.57;;;4.70;99.90;;;;;;6207948;23;20000;-56
2023/11/26 20:33:39;;;;;;;22.90;5.75;;;4.70;99.90;;;;;;6185574;22;20284;-53
2023/11/26 20:36:18;;;;;;;14.18;5.97;;;4.70;99.90;;;;;;6207684;23;20026;-55
2023/11/26 20:38:44;;;;;;;13.73;6.15;;;4.70;99.90;;;;;;6311744;22;20019;-53
2023/11/26 20:41:10;;;;;;;9.95;5.57;;;4.70;99.90;;;;;;6207048;23;20426;-54
2023/11/26 20:43:36;;;;;;;16.60;6.10;;;4.80;99.90;;;;;;6207852;23;20028;-56
2023/11/26 20:46:02;;;;;;;14.68;5.68;;;4.80;99.90;;;;;;6207719;22;20426;-56
2023/11/26 20:48:27;;;;;;;17.55;5.75;;;4.70;99.90;;;;;;6206366;23;20004;-58
2023/11/26 20:50:53;;;;;;;16.02;5.43;;;4.70;99.90;;;;;;6207087;22;20007;-53
2023/11/26 20:53:19;;;;;;;18.20;5.25;;;4.70;99.90;;;;;;6206925;23;20008;-56
2023/11/26 20:55:44;;;;;;;9.90;4.82;;;4.70;99.90;;;;;;6207193;22;20009;-57
2023/11/26 20:58:10;;;;;;;16.25;5.53;;;4.60;99.90;;;;;;6206700;23;20053;-56
2023/11/26 21:00:37;;;;;;;16.63;5.32;;;4.60;99.90;;;;;;6207305;22;20012;-56
2023/11/26 21:03:02;;;;;;;24.63;5.60;;;4.60;99.90;;;;;;6207643;22;20004;-53
2023/11/26 21:05:28;;;;;;;23.52;6.72;;;4.60;99.90;;;;;;6311672;22;20001;-56
2023/11/26 21:07:54;;;;;;;14.20;6.28;;;4.50;99.90;;;;;;6206624;23;19997;-53
2023/11/26 21:10:19;;;;;;;19.98;6.25;;;4.50;99.90;;;;;;6207048;22;20347;-56
2023/11/26 21:12:45;;;;;;;13.30;6.32;;;4.50;99.90;;;;;;6206601;23;20015;-58
2023/11/26 21:15:11;;;;;;;19.25;5.35;;;4.50;99.90;;;;;;6206597;22;20000;-55
2023/11/26 21:17:40;;;;;;;13.32;6.07;;;4.50;99.90;;;;;;6207167;22;20023;-56
2023/11/26 21:20:11;;;;;;;17.63;5.47;;;4.40;99.90;;;;;;6208142;22;20325;-56
2023/11/26 21:22:37;;;;;;;14.82;5.80;;;4.40;99.90;;;;;;6207586;22;20051;-56
2023/11/26 21:25:05;;;;;;;15.85;5.68;;;4.40;99.90;;;;;;6207210;23;20001;-52
2023/11/26 21:27:31;;;;;;;17.27;5.65;;;4.40;99.90;;;;;;6207800;23;20061;-56
2023/11/26 21:29:57;;;;;;;15.30;5.63;;;4.40;99.90;;;;;;6205922;22;20103;-56
2023/11/26 21:32:23;;;;;;;10.90;5.45;;;4.40;99.90;;;;;;6205101;23;20077;-53
2023/11/26 21:34:50;;;;;;;14.00;6.60;;;4.40;99.90;;;;;;6220458;22;20041;-56
2023/11/26 21:37:16;;;;;;;17.92;4.75;;;4.40;99.90;;;;;;6207725;23;20004;-53
2023/11/26 21:39:42;;;;;;;11.43;4.95;;;4.40;99.90;;;;;;6207326;23;20085;-54
2023/11/26 21:42:08;;;;;;;10.50;5.15;;;4.40;99.90;;;;;;6206330;23;20028;-59
2023/11/26 21:44:34;;;;;;;19.60;5.85;;;4.30;99.90;;;;;;6206186;23;20449;-57
2023/11/26 21:47:00;;;;;;;13.80;6.22;;;4.30;99.90;;;;;;6206236;23;20000;-57
2023/11/26 21:49:25;;;;;;;15.00;5.13;;;4.40;99.90;;;;;;6205438;22;20065;-57
2023/11/26 21:51:51;;;;;;;21.33;5.53;;;4.40;99.90;;;;;;6207355;23;20005;-55
2023/11/26 21:54:17;;;;;;;19.90;5.47;;;4.40;99.90;;;;;;6312398;22;20001;-56
2023/11/26 21:56:42;;;;;;;16.30;6.72;;;4.40;99.90;;;;;;6205252;23;20393;-56
2023/11/26 21:59:08;;;;;;;12.88;5.43;;;4.40;99.90;;;;;;6207366;22;20315;-58
2023/11/26 22:01:34;;;;;;;19.42;6.18;;;4.40;99.90;;;;;;6207633;23;20027;-54
2023/11/26 22:03:59;;;;;;;12.10;4.88;;;4.40;99.90;;;;;;6206457;23;20054;-56
2023/11/26 22:06:25;;;;;;;17.77;6.25;;;4.40;99.90;;;;;;6205082;23;20000;-57
2023/11/26 22:08:51;;;;;;;28.45;6.15;;;4.40;99.90;;;;;;6204252;23;20008;-57
2023/11/26 22:11:20;;;;;;;15.30;6.07;;;4.40;99.90;;;;;;6140177;22;20025;-56
2023/11/26 22:13:47;;;;;;;18.23;5.65;;;4.40;99.90;;;;;;6204154;23;20020;-56
2023/11/26 22:16:18;;;;;;;15.80;4.80;;;4.40;99.90;;;;;;6202312;23;20628;-58
2023/11/26 22:18:44;;;;;;;12.23;4.78;;;4.40;99.90;;;;;;6203151;22;20005;-55
2023/11/26 22:21:20;;;;;;;12.20;4.93;;;4.40;99.90;;;;;;6206636;23;20009;-56
2023/11/26 22:23:46;;;;;;;11.48;4.40;;;4.40;99.90;;;;;;6205704;23;20005;-53
2023/11/26 22:26:12;;;;;;;12.70;4.40;;;4.40;99.90;;;;;;6204961;22;20389;-55
2023/11/26 22:28:41;;;;;;;12.82;4.72;;;4.30;99.90;;;;;;6204803;23;20005;-53
2023/11/26 22:31:07;;;;;;;11.18;4.40;;;4.30;99.90;;;;;;6204441;23;20539;-58
2023/11/26 22:33:34;;;;;;;11.38;4.50;;;4.30;99.90;;;;;;6320455;22;20426;-54
2023/11/26 22:35:59;;;;;;;13.07;5.22;;;4.30;99.90;;;;;;6210154;22;20388;-57
2023/11/26 22:38:25;;;;;;;12.52;5.88;;;4.30;99.90;;;;;;6205171;23;20103;-52
2023/11/26 22:40:51;;;;;;;12.15;4.95;;;4.20;99.90;;;;;;6207582;23;20004;-57
2023/11/26 22:43:17;;;;;;;14.77;5.30;;;4.20;99.90;;;;;;6207862;22;20004;-55
2023/11/26 22:45:42;;;;;;;13.55;5.55;;;4.20;99.90;;;;;;6208015;23;20059;-55
2023/11/26 22:48:08;;;;;;;14.25;5.70;;;4.20;99.90;;;;;;6207850;22;20027;-55
2023/11/26 22:50:36;;;;;;;14.63;6.47;;;4.20;99.90;;;;;;6313525;22;20113;-52
2023/11/26 22:53:02;;;;;;;13.70;6.40;;;4.20;99.90;;;;;;6207201;22;20022;-56
2023/11/26 22:55:28;;;;;;;14.43;6.15;;;4.20;99.90;;;;;;6207112;23;20005;-53
2023/11/26 22:57:53;;;;;;;13.57;6.15;;;4.10;99.90;;;;;;6207555;23;20015;-56
2023/11/26 23:00:20;;;;;;;17.10;5.30;;;4.20;99.90;;;;;;6207581;23;20054;-57
2023/11/26 23:02:46;;;;;;;15.65;5.32;;;4.20;99.90;;;;;;6207686;23;20054;-55
2023/11/26 23:05:13;;;;;;;12.57;4.95;;;4.10;99.90;;;;;;6206867;23;19997;-56
2023/11/26 23:07:40;;;;;;;14.18;5.03;;;4.10;99.90;;;;;;6207848;23;20331;-53
2023/11/26 23:10:06;;;;;;;18.35;5.53;;;4.10;99.90;;;;;;6208468;22;20005;-56
2023/11/26 23:12:32;;;;;;;9.88;4.70;;;4.10;99.90;;;;;;6207832;23;20431;-56
2023/11/26 23:14:58;;;;;;;12.07;4.75;;;4.10;99.90;;;;;;6207161;23;20011;-55
2023/11/26 23:17:24;;;;;;;10.00;4.88;;;4.10;99.90;;;;;;6206173;23;20150;-57
2023/11/26 23:19:50;;;;;;;13.10;4.57;;;4.00;99.90;;;;;;6205646;23;20036;-56
2023/11/26 23:22:15;;;;;;;19.92;5.22;;;4.00;99.90;;;;;;6207720;23;20094;-58
2023/11/26 23:24:41;;;;;;;10.82;4.20;;;4.00;99.90;;;;;;6207557;23;20487;-53
2023/11/26 23:27:06;;;;;;;14.75;4.72;;;4.00;99.90;;;;;;6312363;22;20487;-55
2023/11/26 23:29:32;;;;;;;10.45;4.45;;;4.00;99.90;;;;;;6207210;23;19997;-53
2023/11/26 23:31:58;;;;;;;11.73;4.32;;;3.90;99.90;;;;;;6207405;23;20053;-58
2023/11/26 23:34:23;;;;;;;9.40;3.80;;;4.00;99.90;;;;;;6225003;22;20009;-56
2023/11/26 23:36:49;;;;;;;12.55;3.95;;;4.00;99.90;;;;;;6208464;23;20319;-53
2023/11/26 23:39:15;;;;;;;13.75;4.97;;;4.00;99.90;;;;;;6207800;23;20077;-56
2023/11/26 23:41:41;;;;;;;16.20;3.92;;;4.00;99.90;;;;;;6207487;23;20032;-53
2023/11/26 23:44:07;;;;;;;8.80;3.90;;;4.00;99.90;;;;;;6208621;22;20004;-55
2023/11/26 23:46:32;;;;;;;9.82;3.63;;;4.00;99.90;;;;;;6208426;23;20049;-55
2023/11/26 23:48:58;;;;;;;10.93;3.42;;;4.00;99.90;;;;;;6206856;23;20870;-56
2023/11/26 23:51:24;;;;;;;10.70;3.90;;;4.00;99.90;;;;;;6208041;23;20004;-56
2023/11/26 23:53:49;;;;;;;14.70;4.00;;;4.00;99.90;;;;;;6208053;23;20013;-55
2023/11/26 23:56:15;;;;;;;12.82;3.55;;;4.00;99.90;;;;;;6208055;23;20007;-52
2023/11/26 23:58:40;;;;;;;11.05;4.30;;;4.00;99.90;;;;;;6206570;23;20012;-56
